sensor_id;sensor_type;location;lat;lon;timestamp;P1;durP1;ratioP1;P2;durP2;ratioP2
68803;SDS011;55787;52.678;13.314;2023-02-15T00:01:59;39.83;;;12.83;;
68803;SDS011;55787;52.678;13.314;2023-02-15T00:04:26;41.40;;;12.52;;
68803;SDS011;55787;52.678;13.314;2023-02-15T00:07:15;43.15;;;13.32;;
68803;SDS011;55787;52.678;13.314;2023-02-15T00:09:44;41.58;;;13.27;;
68803;SDS011;55787;52.678;13.314;2023-02-15T00:12:12;43.10;;;14.70;;
68803;SDS011;55787;52.678;13.314;2023-02-15T00:14:39;45.50;;;14.83;;
68803;SDS011;55787;52.678;13.314;2023-02-15T00:17:05;44.28;;;14.15;;
68803;SDS011;55787;52.678;13.314;2023-02-15T00:19:32;44.65;;;13.73;;
68803;SDS011;55787;52.678;13.314;2023-02-15T00:21:59;40.95;;;12.85;;
68803;SDS011;55787;52.678;13.314;2023-02-15T00:24:25;41.97;;;13.52;;
68803;SDS011;55787;52.678;13.314;2023-02-15T00:26:52;46.07;;;13.40;;
68803;SDS011;55787;52.678;13.314;2023-02-15T00:29:20;42.13;;;13.68;;
68803;SDS011;55787;52.678;13.314;2023-02-15T00:31:47;40.80;;;12.55;;
68803;SDS011;55787;52.678;13.314;2023-02-15T00:34:21;43.05;;;13.90;;
68803;SDS011;55787;52.678;13.314;2023-02-15T00:36:50;41.22;;;13.18;;
68803;SDS011;55787;52.678;13.314;2023-02-15T00:39:17;42.77;;;12.57;;
68803;SDS011;55787;52.678;13.314;2023-02-15T00:41:45;42.33;;;13.20;;
68803;SDS011;55787;52.678;13.314;2023-02-15T00:44:13;42.33;;;13.05;;
68803;SDS011;55787;52.678;13.314;2023-02-15T00:46:40;42.90;;;12.80;;
68803;SDS011;55787;52.678;13.314;2023-02-15T00:49:07;45.55;;;13.70;;
68803;SDS011;55787;52.678;13.314;2023-02-15T00:51:33;40.63;;;13.03;;
68803;SDS011;55787;52.678;13.314;2023-02-15T00:54:00;46.10;;;13.48;;
68803;SDS011;55787;52.678;13.314;2023-02-15T00:56:27;40.95;;;13.30;;
68803;SDS011;55787;52.678;13.314;2023-02-15T00:58:54;49.47;;;13.68;;
68803;SDS011;55787;52.678;13.314;2023-02-15T01:01:22;43.90;;;13.60;;
68803;SDS011;55787;52.678;13.314;2023-02-15T01:03:49;43.57;;;13.50;;
68803;SDS011;55787;52.678;13.314;2023-02-15T01:06:17;43.85;;;13.45;;
68803;SDS011;55787;52.678;13.314;2023-02-15T01:08:44;45.72;;;13.85;;
68803;SDS011;55787;52.678;13.314;2023-02-15T01:11:15;43.35;;;13.20;;
68803;SDS011;55787;52.678;13.314;2023-02-15T01:13:51;46.65;;;13.35;;
68803;SDS011;55787;52.678;13.314;2023-02-15T01:16:19;44.73;;;13.30;;
68803;SDS011;55787;52.678;13.314;2023-02-15T01:18:46;44.85;;;13.55;;
68803;SDS011;55787;52.678;13.314;2023-02-15T01:21:15;44.33;;;13.30;;
68803;SDS011;55787;52.678;13.314;2023-02-15T01:23:44;48.17;;;12.77;;
68803;SDS011;55787;52.678;13.314;2023-02-15T01:26:11;50.13;;;14.27;;
68803;SDS011;55787;52.678;13.314;2023-02-15T01:28:38;46.53;;;13.27;;
68803;SDS011;55787;52.678;13.314;2023-02-15T01:31:06;46.00;;;13.82;;
68803;SDS011;55787;52.678;13.314;2023-02-15T01:33:36;44.72;;;12.88;;
68803;SDS011;55787;52.678;13.314;2023-02-15T01:36:04;48.95;;;13.30;;
68803;SDS011;55787;52.678;13.314;2023-02-15T01:38:31;42.42;;;13.27;;
68803;SDS011;55787;52.678;13.314;2023-02-15T01:40:57;43.73;;;13.37;;
68803;SDS011;55787;52.678;13.314;2023-02-15T01:43:45;49.55;;;14.02;;
68803;SDS011;55787;52.678;13.314;2023-02-15T01:46:14;48.67;;;13.05;;
68803;SDS011;55787;52.678;13.314;2023-02-15T01:48:50;43.92;;;13.40;;
68803;SDS011;55787;52.678;13.314;2023-02-15T01:51:22;46.38;;;14.52;;
68803;SDS011;55787;52.678;13.314;2023-02-15T01:53:54;45.63;;;13.30;;
68803;SDS011;55787;52.678;13.314;2023-02-15T01:56:27;47.75;;;13.85;;
68803;SDS011;55787;52.678;13.314;2023-02-15T01:58:58;47.78;;;13.85;;
68803;SDS011;55787;52.678;13.314;2023-02-15T02:01:28;51.28;;;14.25;;
68803;SDS011;55787;52.678;13.314;2023-02-15T02:06:32;44.43;;;13.10;;
68803;SDS011;55787;52.678;13.314;2023-02-15T02:09:01;47.53;;;13.75;;
68803;SDS011;55787;52.678;13.314;2023-02-15T02:11:29;47.35;;;12.75;;
68803;SDS011;55787;52.678;13.314;2023-02-15T02:13:55;44.83;;;12.68;;
68803;SDS011;55787;52.678;13.314;2023-02-15T02:19:10;45.50;;;13.43;;
68803;SDS011;55787;52.678;13.314;2023-02-15T02:35:48;43.67;;;12.40;;
68803;SDS011;55787;52.678;13.314;2023-02-15T02:38:32;43.63;;;12.10;;
68803;SDS011;55787;52.678;13.314;2023-02-15T02:41:12;50.80;;;12.85;;
68803;SDS011;55787;52.678;13.314;2023-02-15T02:43:48;51.05;;;14.20;;
68803;SDS011;55787;52.678;13.314;2023-02-15T02:46:22;43.23;;;12.20;;
68803;SDS011;55787;52.678;13.314;2023-02-15T02:48:54;44.00;;;12.25;;
68803;SDS011;55787;52.678;13.314;2023-02-15T02:51:21;43.40;;;13.50;;
68803;SDS011;55787;52.678;13.314;2023-02-15T02:53:52;45.03;;;13.10;;
68803;SDS011;55787;52.678;13.314;2023-02-15T02:59:10;42.70;;;12.93;;
68803;SDS011;55787;52.678;13.314;2023-02-15T03:01:45;43.63;;;12.02;;
68803;SDS011;55787;52.678;13.314;2023-02-15T03:04:20;49.97;;;13.32;;
68803;SDS011;55787;52.678;13.314;2023-02-15T03:06:58;46.30;;;12.82;;
68803;SDS011;55787;52.678;13.314;2023-02-15T03:09:28;44.90;;;12.18;;
68803;SDS011;55787;52.678;13.314;2023-02-15T03:12:08;43.10;;;11.73;;
68803;SDS011;55787;52.678;13.314;2023-02-15T03:14:38;48.63;;;12.95;;
68803;SDS011;55787;52.678;13.314;2023-02-15T03:17:07;45.83;;;12.77;;
68803;SDS011;55787;52.678;13.314;2023-02-15T03:19:35;48.05;;;12.88;;
68803;SDS011;55787;52.678;13.314;2023-02-15T03:22:08;48.97;;;12.88;;
68803;SDS011;55787;52.678;13.314;2023-02-15T03:27:59;46.88;;;12.07;;
68803;SDS011;55787;52.678;13.314;2023-02-15T03:30:29;45.50;;;12.65;;
68803;SDS011;55787;52.678;13.314;2023-02-15T03:32:58;48.47;;;13.77;;
68803;SDS011;55787;52.678;13.314;2023-02-15T03:35:29;44.28;;;11.88;;
68803;SDS011;55787;52.678;13.314;2023-02-15T03:38:25;40.63;;;11.83;;
68803;SDS011;55787;52.678;13.314;2023-02-15T03:41:01;49.22;;;12.27;;
68803;SDS011;55787;52.678;13.314;2023-02-15T03:43:52;42.28;;;12.20;;
68803;SDS011;55787;52.678;13.314;2023-02-15T03:48:56;43.28;;;11.85;;
68803;SDS011;55787;52.678;13.314;2023-02-15T03:51:28;41.30;;;11.60;;
68803;SDS011;55787;52.678;13.314;2023-02-15T03:54:03;43.60;;;11.80;;
68803;SDS011;55787;52.678;13.314;2023-02-15T03:56:34;46.10;;;12.63;;
68803;SDS011;55787;52.678;13.314;2023-02-15T03:59:02;45.85;;;12.70;;
68803;SDS011;55787;52.678;13.314;2023-02-15T04:01:52;45.47;;;13.07;;
68803;SDS011;55787;52.678;13.314;2023-02-15T04:04:37;40.63;;;11.33;;
68803;SDS011;55787;52.678;13.314;2023-02-15T04:07:06;56.53;;;13.30;;
68803;SDS011;55787;52.678;13.314;2023-02-15T04:09:34;50.40;;;12.75;;
68803;SDS011;55787;52.678;13.314;2023-02-15T04:12:19;49.22;;;13.38;;
68803;SDS011;55787;52.678;13.314;2023-02-15T04:14:46;43.10;;;12.00;;
68803;SDS011;55787;52.678;13.314;2023-02-15T04:17:31;40.23;;;11.43;;
68803;SDS011;55787;52.678;13.314;2023-02-15T04:19:58;50.00;;;12.63;;
68803;SDS011;55787;52.678;13.314;2023-02-15T04:22:43;56.33;;;14.35;;
68803;SDS011;55787;52.678;13.314;2023-02-15T04:25:28;52.47;;;14.32;;
68803;SDS011;55787;52.678;13.314;2023-02-15T04:27:55;51.05;;;13.98;;
68803;SDS011;55787;52.678;13.314;2023-02-15T04:30:22;51.67;;;13.27;;
68803;SDS011;55787;52.678;13.314;2023-02-15T04:32:51;61.78;;;14.80;;
68803;SDS011;55787;52.678;13.314;2023-02-15T04:35:17;66.88;;;15.10;;
68803;SDS011;55787;52.678;13.314;2023-02-15T04:37:44;58.55;;;13.60;;
68803;SDS011;55787;52.678;13.314;2023-02-15T04:40:12;62.03;;;15.18;;
68803;SDS011;55787;52.678;13.314;2023-02-15T04:42:43;65.87;;;14.70;;
68803;SDS011;55787;52.678;13.314;2023-02-15T04:45:09;71.72;;;15.68;;
68803;SDS011;55787;52.678;13.314;2023-02-15T04:47:36;67.80;;;16.15;;
68803;SDS011;55787;52.678;13.314;2023-02-15T04:50:03;58.58;;;14.73;;
68803;SDS011;55787;52.678;13.314;2023-02-15T04:52:30;68.65;;;16.50;;
68803;SDS011;55787;52.678;13.314;2023-02-15T04:54:57;67.67;;;16.40;;
68803;SDS011;55787;52.678;13.314;2023-02-15T04:57:23;68.00;;;15.48;;
68803;SDS011;55787;52.678;13.314;2023-02-15T04:59:50;70.43;;;18.10;;
68803;SDS011;55787;52.678;13.314;2023-02-15T05:02:17;83.90;;;18.20;;
68803;SDS011;55787;52.678;13.314;2023-02-15T05:04:43;83.72;;;18.20;;
68803;SDS011;55787;52.678;13.314;2023-02-15T05:07:10;80.70;;;18.13;;
68803;SDS011;55787;52.678;13.314;2023-02-15T05:09:36;76.95;;;18.30;;
68803;SDS011;55787;52.678;13.314;2023-02-15T05:12:03;79.00;;;18.77;;
68803;SDS011;55787;52.678;13.314;2023-02-15T05:14:30;88.18;;;19.00;;
68803;SDS011;55787;52.678;13.314;2023-02-15T05:16:57;87.32;;;18.02;;
68803;SDS011;55787;52.678;13.314;2023-02-15T05:19:27;86.53;;;19.37;;
68803;SDS011;55787;52.678;13.314;2023-02-15T05:21:53;92.57;;;20.17;;
68803;SDS011;55787;52.678;13.314;2023-02-15T05:24:20;82.88;;;19.13;;
68803;SDS011;55787;52.678;13.314;2023-02-15T05:27:07;86.93;;;18.90;;
68803;SDS011;55787;52.678;13.314;2023-02-15T05:29:55;71.63;;;17.75;;
68803;SDS011;55787;52.678;13.314;2023-02-15T05:32:22;92.57;;;20.03;;
68803;SDS011;55787;52.678;13.314;2023-02-15T05:34:48;86.72;;;18.98;;
68803;SDS011;55787;52.678;13.314;2023-02-15T05:37:15;89.20;;;19.73;;
68803;SDS011;55787;52.678;13.314;2023-02-15T05:39:42;84.45;;;18.75;;
68803;SDS011;55787;52.678;13.314;2023-02-15T05:42:08;83.80;;;18.77;;
68803;SDS011;55787;52.678;13.314;2023-02-15T05:44:35;89.23;;;20.23;;
68803;SDS011;55787;52.678;13.314;2023-02-15T05:47:02;80.35;;;19.60;;
68803;SDS011;55787;52.678;13.314;2023-02-15T05:49:29;77.00;;;18.80;;
68803;SDS011;55787;52.678;13.314;2023-02-15T05:51:56;92.80;;;20.58;;
68803;SDS011;55787;52.678;13.314;2023-02-15T05:54:23;92.43;;;20.40;;
68803;SDS011;55787;52.678;13.314;2023-02-15T05:56:50;83.90;;;20.90;;
68803;SDS011;55787;52.678;13.314;2023-02-15T05:59:17;76.85;;;18.95;;
68803;SDS011;55787;52.678;13.314;2023-02-15T06:01:43;90.50;;;19.58;;
68803;SDS011;55787;52.678;13.314;2023-02-15T06:04:10;86.18;;;20.98;;
68803;SDS011;55787;52.678;13.314;2023-02-15T06:06:36;76.32;;;18.92;;
68803;SDS011;55787;52.678;13.314;2023-02-15T06:09:03;88.20;;;19.20;;
68803;SDS011;55787;52.678;13.314;2023-02-15T06:11:30;80.13;;;19.50;;
68803;SDS011;55787;52.678;13.314;2023-02-15T06:13:56;82.05;;;19.38;;
68803;SDS011;55787;52.678;13.314;2023-02-15T06:16:24;86.47;;;20.33;;
68803;SDS011;55787;52.678;13.314;2023-02-15T06:18:50;88.15;;;19.48;;
68803;SDS011;55787;52.678;13.314;2023-02-15T06:21:19;79.77;;;20.33;;
68803;SDS011;55787;52.678;13.314;2023-02-15T06:23:45;83.25;;;20.77;;
68803;SDS011;55787;52.678;13.314;2023-02-15T06:26:12;83.22;;;20.50;;
68803;SDS011;55787;52.678;13.314;2023-02-15T06:28:39;82.43;;;20.52;;
68803;SDS011;55787;52.678;13.314;2023-02-15T06:31:07;86.57;;;20.02;;
68803;SDS011;55787;52.678;13.314;2023-02-15T06:33:34;71.60;;;20.43;;
68803;SDS011;55787;52.678;13.314;2023-02-15T06:36:01;83.45;;;19.98;;
68803;SDS011;55787;52.678;13.314;2023-02-15T06:38:30;92.60;;;20.90;;
68803;SDS011;55787;52.678;13.314;2023-02-15T06:40:57;87.63;;;20.98;;
68803;SDS011;55787;52.678;13.314;2023-02-15T06:43:23;90.32;;;21.00;;
68803;SDS011;55787;52.678;13.314;2023-02-15T06:45:50;108.70;;;21.73;;
68803;SDS011;55787;52.678;13.314;2023-02-15T06:48:17;102.43;;;19.10;;
68803;SDS011;55787;52.678;13.314;2023-02-15T06:50:43;103.00;;;19.70;;
68803;SDS011;55787;52.678;13.314;2023-02-15T06:53:10;76.32;;;18.85;;
68803;SDS011;55787;52.678;13.314;2023-02-15T06:55:36;63.83;;;15.40;;
68803;SDS011;55787;52.678;13.314;2023-02-15T06:58:03;101.63;;;19.03;;
68803;SDS011;55787;52.678;13.314;2023-02-15T07:00:30;134.98;;;20.38;;
68803;SDS011;55787;52.678;13.314;2023-02-15T07:02:57;100.72;;;19.02;;
68803;SDS011;55787;52.678;13.314;2023-02-15T07:05:25;107.38;;;19.23;;
68803;SDS011;55787;52.678;13.314;2023-02-15T07:07:57;70.80;;;15.05;;
68803;SDS011;55787;52.678;13.314;2023-02-15T07:10:25;102.33;;;19.13;;
68803;SDS011;55787;52.678;13.314;2023-02-15T07:12:53;123.40;;;19.77;;
68803;SDS011;55787;52.678;13.314;2023-02-15T07:15:20;134.68;;;19.73;;
68803;SDS011;55787;52.678;13.314;2023-02-15T07:17:47;115.47;;;18.60;;
68803;SDS011;55787;52.678;13.314;2023-02-15T07:20:19;146.77;;;21.50;;
68803;SDS011;55787;52.678;13.314;2023-02-15T07:22:48;141.80;;;20.87;;
68803;SDS011;55787;52.678;13.314;2023-02-15T07:25:15;119.93;;;21.92;;
68803;SDS011;55787;52.678;13.314;2023-02-15T07:27:43;114.20;;;21.88;;
68803;SDS011;55787;52.678;13.314;2023-02-15T07:30:12;118.15;;;20.10;;
68803;SDS011;55787;52.678;13.314;2023-02-15T07:32:41;148.23;;;20.85;;
68803;SDS011;55787;52.678;13.314;2023-02-15T07:35:30;118.13;;;18.67;;
68803;SDS011;55787;52.678;13.314;2023-02-15T07:37:57;119.72;;;17.63;;
68803;SDS011;55787;52.678;13.314;2023-02-15T07:40:23;84.22;;;16.50;;
68803;SDS011;55787;52.678;13.314;2023-02-15T07:42:50;149.23;;;19.60;;
68803;SDS011;55787;52.678;13.314;2023-02-15T07:45:20;92.85;;;17.55;;
68803;SDS011;55787;52.678;13.314;2023-02-15T07:47:47;95.93;;;16.67;;
68803;SDS011;55787;52.678;13.314;2023-02-15T07:50:14;147.00;;;19.75;;
68803;SDS011;55787;52.678;13.314;2023-02-15T07:52:40;129.20;;;20.90;;
68803;SDS011;55787;52.678;13.314;2023-02-15T07:55:07;133.70;;;25.20;;
68803;SDS011;55787;52.678;13.314;2023-02-15T07:57:35;119.53;;;19.63;;
68803;SDS011;55787;52.678;13.314;2023-02-15T08:00:02;129.90;;;19.90;;
68803;SDS011;55787;52.678;13.314;2023-02-15T08:02:29;97.20;;;17.90;;
68803;SDS011;55787;52.678;13.314;2023-02-15T08:04:56;128.10;;;19.00;;
68803;SDS011;55787;52.678;13.314;2023-02-15T08:07:23;120.07;;;18.08;;
68803;SDS011;55787;52.678;13.314;2023-02-15T08:09:49;120.47;;;19.80;;
68803;SDS011;55787;52.678;13.314;2023-02-15T08:12:16;94.67;;;17.33;;
68803;SDS011;55787;52.678;13.314;2023-02-15T08:14:42;124.38;;;20.73;;
68803;SDS011;55787;52.678;13.314;2023-02-15T08:17:10;127.93;;;19.75;;
68803;SDS011;55787;52.678;13.314;2023-02-15T08:19:37;98.78;;;17.58;;
68803;SDS011;55787;52.678;13.314;2023-02-15T08:22:07;112.88;;;18.52;;
68803;SDS011;55787;52.678;13.314;2023-02-15T08:24:36;101.10;;;20.13;;
68803;SDS011;55787;52.678;13.314;2023-02-15T08:27:04;115.38;;;18.85;;
68803;SDS011;55787;52.678;13.314;2023-02-15T08:29:33;103.40;;;19.15;;
68803;SDS011;55787;52.678;13.314;2023-02-15T08:32:05;68.47;;;16.23;;
68803;SDS011;55787;52.678;13.314;2023-02-15T08:34:35;122.85;;;19.17;;
68803;SDS011;55787;52.678;13.314;2023-02-15T08:37:03;100.90;;;15.90;;
68803;SDS011;55787;52.678;13.314;2023-02-15T08:39:32;107.97;;;17.75;;
68803;SDS011;55787;52.678;13.314;2023-02-15T08:41:59;126.40;;;17.90;;
68803;SDS011;55787;52.678;13.314;2023-02-15T08:44:25;98.82;;;18.98;;
68803;SDS011;55787;52.678;13.314;2023-02-15T08:46:52;86.03;;;15.05;;
68803;SDS011;55787;52.678;13.314;2023-02-15T08:49:19;104.90;;;18.00;;
68803;SDS011;55787;52.678;13.314;2023-02-15T08:51:48;140.75;;;19.73;;
68803;SDS011;55787;52.678;13.314;2023-02-15T08:54:17;120.53;;;20.00;;
68803;SDS011;55787;52.678;13.314;2023-02-15T08:56:45;122.53;;;20.25;;
68803;SDS011;55787;52.678;13.314;2023-02-15T08:59:16;130.35;;;19.50;;
68803;SDS011;55787;52.678;13.314;2023-02-15T09:01:46;132.80;;;20.57;;
68803;SDS011;55787;52.678;13.314;2023-02-15T09:04:14;103.97;;;18.42;;
68803;SDS011;55787;52.678;13.314;2023-02-15T09:06:42;90.53;;;17.92;;
68803;SDS011;55787;52.678;13.314;2023-02-15T09:09:13;153.13;;;22.08;;
68803;SDS011;55787;52.678;13.314;2023-02-15T09:11:41;112.47;;;20.17;;
68803;SDS011;55787;52.678;13.314;2023-02-15T09:14:12;132.67;;;21.13;;
68803;SDS011;55787;52.678;13.314;2023-02-15T09:16:41;134.05;;;22.58;;
68803;SDS011;55787;52.678;13.314;2023-02-15T09:19:11;114.70;;;23.75;;
68803;SDS011;55787;52.678;13.314;2023-02-15T09:21:38;123.82;;;21.75;;
68803;SDS011;55787;52.678;13.314;2023-02-15T09:24:06;120.50;;;22.20;;
68803;SDS011;55787;52.678;13.314;2023-02-15T09:26:36;102.80;;;22.10;;
68803;SDS011;55787;52.678;13.314;2023-02-15T09:29:07;120.18;;;22.30;;
68803;SDS011;55787;52.678;13.314;2023-02-15T09:31:39;100.53;;;23.15;;
68803;SDS011;55787;52.678;13.314;2023-02-15T09:34:11;96.00;;;20.42;;
68803;SDS011;55787;52.678;13.314;2023-02-15T09:36:39;101.63;;;20.63;;
68803;SDS011;55787;52.678;13.314;2023-02-15T09:56:00;84.50;;;21.83;;
68803;SDS011;55787;52.678;13.314;2023-02-15T09:58:56;86.40;;;21.45;;
68803;SDS011;55787;52.678;13.314;2023-02-15T10:27:44;76.30;;;21.95;;
68803;SDS011;55787;52.678;13.314;2023-02-15T10:33:18;71.88;;;21.40;;
68803;SDS011;55787;52.678;13.314;2023-02-15T10:44:31;70.90;;;19.92;;
68803;SDS011;55787;52.678;13.314;2023-02-15T10:58:06;63.15;;;20.85;;
68803;SDS011;55787;52.678;13.314;2023-02-15T11:00:41;59.83;;;20.30;;
68803;SDS011;55787;52.678;13.314;2023-02-15T11:06:09;58.58;;;19.35;;
68803;SDS011;55787;52.678;13.314;2023-02-15T11:08:43;54.38;;;19.50;;
68803;SDS011;55787;52.678;13.314;2023-02-15T11:11:19;58.10;;;19.63;;
68803;SDS011;55787;52.678;13.314;2023-02-15T11:13:50;56.92;;;19.90;;
68803;SDS011;55787;52.678;13.314;2023-02-15T11:16:22;57.90;;;19.63;;
68803;SDS011;55787;52.678;13.314;2023-02-15T11:19:11;59.10;;;20.17;;
68803;SDS011;55787;52.678;13.314;2023-02-15T11:21:43;61.42;;;20.67;;
68803;SDS011;55787;52.678;13.314;2023-02-15T11:24:17;57.33;;;20.80;;
68803;SDS011;55787;52.678;13.314;2023-02-15T11:27:04;54.58;;;19.05;;
68803;SDS011;55787;52.678;13.314;2023-02-15T11:29:46;59.13;;;19.80;;
68803;SDS011;55787;52.678;13.314;2023-02-15T11:34:58;58.22;;;18.77;;
68803;SDS011;55787;52.678;13.314;2023-02-15T11:38:19;54.17;;;20.05;;
68803;SDS011;55787;52.678;13.314;2023-02-15T11:42:52;53.17;;;19.13;;
68803;SDS011;55787;52.678;13.314;2023-02-15T11:45:26;57.20;;;20.27;;
68803;SDS011;55787;52.678;13.314;2023-02-15T11:47:56;51.30;;;19.65;;
68803;SDS011;55787;52.678;13.314;2023-02-15T11:50:25;54.20;;;18.75;;
68803;SDS011;55787;52.678;13.314;2023-02-15T11:52:56;48.00;;;18.00;;
68803;SDS011;55787;52.678;13.314;2023-02-15T11:55:29;45.67;;;18.38;;
68803;SDS011;55787;52.678;13.314;2023-02-15T12:00:48;43.63;;;17.40;;
68803;SDS011;55787;52.678;13.314;2023-02-15T12:03:21;43.00;;;17.10;;
68803;SDS011;55787;52.678;13.314;2023-02-15T12:05:58;44.40;;;17.65;;
68803;SDS011;55787;52.678;13.314;2023-02-15T12:08:33;40.63;;;17.00;;
68803;SDS011;55787;52.678;13.314;2023-02-15T12:11:19;36.60;;;15.85;;
68803;SDS011;55787;52.678;13.314;2023-02-15T12:16:26;43.83;;;16.73;;
68803;SDS011;55787;52.678;13.314;2023-02-15T12:18:56;40.75;;;15.88;;
68803;SDS011;55787;52.678;13.314;2023-02-15T12:26:44;38.42;;;15.52;;
68803;SDS011;55787;52.678;13.314;2023-02-15T12:29:24;35.65;;;15.23;;
68803;SDS011;55787;52.678;13.314;2023-02-15T12:31:53;40.30;;;16.05;;
68803;SDS011;55787;52.678;13.314;2023-02-15T12:34:21;34.08;;;14.52;;
68803;SDS011;55787;52.678;13.314;2023-02-15T12:36:51;34.88;;;14.95;;
68803;SDS011;55787;52.678;13.314;2023-02-15T12:39:24;40.08;;;14.80;;
68803;SDS011;55787;52.678;13.314;2023-02-15T12:41:57;32.78;;;14.52;;
68803;SDS011;55787;52.678;13.314;2023-02-15T12:46:56;30.35;;;13.80;;
68803;SDS011;55787;52.678;13.314;2023-02-15T12:50:10;34.58;;;13.57;;
68803;SDS011;55787;52.678;13.314;2023-02-15T12:52:44;29.35;;;12.95;;
68803;SDS011;55787;52.678;13.314;2023-02-15T12:55:27;28.65;;;12.27;;
68803;SDS011;55787;52.678;13.314;2023-02-15T12:58:19;28.02;;;11.48;;
68803;SDS011;55787;52.678;13.314;2023-02-15T13:01:01;25.63;;;11.60;;
68803;SDS011;55787;52.678;13.314;2023-02-15T13:03:38;26.63;;;11.98;;
68803;SDS011;55787;52.678;13.314;2023-02-15T13:06:21;23.75;;;10.27;;
68803;SDS011;55787;52.678;13.314;2023-02-15T13:08:52;25.63;;;11.38;;
68803;SDS011;55787;52.678;13.314;2023-02-15T13:11:22;23.55;;;10.70;;
68803;SDS011;55787;52.678;13.314;2023-02-15T13:13:56;22.90;;;10.55;;
68803;SDS011;55787;52.678;13.314;2023-02-15T13:16:32;21.05;;;10.05;;
68803;SDS011;55787;52.678;13.314;2023-02-15T13:21:57;20.73;;;9.25;;
68803;SDS011;55787;52.678;13.314;2023-02-15T13:24:43;18.17;;;8.48;;
68803;SDS011;55787;52.678;13.314;2023-02-15T13:27:17;19.50;;;8.63;;
68803;SDS011;55787;52.678;13.314;2023-02-15T13:29:51;18.70;;;8.20;;
68803;SDS011;55787;52.678;13.314;2023-02-15T13:32:31;20.77;;;8.88;;
68803;SDS011;55787;52.678;13.314;2023-02-15T13:35:03;20.42;;;8.48;;
68803;SDS011;55787;52.678;13.314;2023-02-15T13:42:52;21.17;;;8.82;;
68803;SDS011;55787;52.678;13.314;2023-02-15T13:45:29;19.48;;;9.15;;
68803;SDS011;55787;52.678;13.314;2023-02-15T13:51:30;18.63;;;8.48;;
68803;SDS011;55787;52.678;13.314;2023-02-15T13:59:24;21.00;;;9.45;;
68803;SDS011;55787;52.678;13.314;2023-02-15T14:13:26;21.65;;;9.50;;
68803;SDS011;55787;52.678;13.314;2023-02-15T14:24:57;23.60;;;11.30;;
68803;SDS011;55787;52.678;13.314;2023-02-15T14:30:25;25.00;;;10.63;;
68803;SDS011;55787;52.678;13.314;2023-02-15T14:33:01;21.50;;;9.93;;
68803;SDS011;55787;52.678;13.314;2023-02-15T14:35:33;23.98;;;10.73;;
68803;SDS011;55787;52.678;13.314;2023-02-15T14:46:23;23.25;;;10.68;;
68803;SDS011;55787;52.678;13.314;2023-02-15T14:54:10;24.50;;;10.80;;
68803;SDS011;55787;52.678;13.314;2023-02-15T15:04:38;23.50;;;10.90;;
68803;SDS011;55787;52.678;13.314;2023-02-15T15:07:16;25.00;;;11.18;;
68803;SDS011;55787;52.678;13.314;2023-02-15T15:09:48;24.15;;;10.32;;
68803;SDS011;55787;52.678;13.314;2023-02-15T15:14:52;26.40;;;11.60;;
68803;SDS011;55787;52.678;13.314;2023-02-15T15:22:27;27.70;;;12.07;;
68803;SDS011;55787;52.678;13.314;2023-02-15T15:28:05;24.85;;;10.98;;
68803;SDS011;55787;52.678;13.314;2023-02-15T15:33:01;24.38;;;10.35;;
68803;SDS011;55787;52.678;13.314;2023-02-15T15:49:45;25.50;;;11.25;;
68803;SDS011;55787;52.678;13.314;2023-02-15T15:52:13;27.02;;;12.02;;
68803;SDS011;55787;52.678;13.314;2023-02-15T15:54:42;26.38;;;11.43;;
68803;SDS011;55787;52.678;13.314;2023-02-15T15:57:15;25.50;;;11.38;;
68803;SDS011;55787;52.678;13.314;2023-02-15T15:59:53;27.35;;;12.25;;
68803;SDS011;55787;52.678;13.314;2023-02-15T16:02:21;26.40;;;11.80;;
68803;SDS011;55787;52.678;13.314;2023-02-15T16:04:49;25.77;;;11.73;;
68803;SDS011;55787;52.678;13.314;2023-02-15T16:10:04;29.60;;;12.57;;
68803;SDS011;55787;52.678;13.314;2023-02-15T16:12:34;31.95;;;13.75;;
68803;SDS011;55787;52.678;13.314;2023-02-15T16:15:13;30.27;;;13.48;;
68803;SDS011;55787;52.678;13.314;2023-02-15T16:17:54;27.30;;;12.23;;
68803;SDS011;55787;52.678;13.314;2023-02-15T16:20:27;28.63;;;11.38;;
68803;SDS011;55787;52.678;13.314;2023-02-15T16:29:13;25.10;;;9.80;;
68803;SDS011;55787;52.678;13.314;2023-02-15T16:31:41;23.73;;;10.10;;
68803;SDS011;55787;52.678;13.314;2023-02-15T16:34:09;21.97;;;8.90;;
68803;SDS011;55787;52.678;13.314;2023-02-15T16:36:43;23.73;;;10.30;;
68803;SDS011;55787;52.678;13.314;2023-02-15T16:39:16;22.90;;;9.80;;
68803;SDS011;55787;52.678;13.314;2023-02-15T16:41:45;23.38;;;9.05;;
68803;SDS011;55787;52.678;13.314;2023-02-15T16:44:16;23.55;;;9.10;;
68803;SDS011;55787;52.678;13.314;2023-02-15T16:46:49;21.40;;;8.70;;
68803;SDS011;55787;52.678;13.314;2023-02-15T16:51:59;23.98;;;9.35;;
68803;SDS011;55787;52.678;13.314;2023-02-15T16:54:28;25.20;;;10.23;;
68803;SDS011;55787;52.678;13.314;2023-02-15T16:56:57;25.35;;;10.00;;
68803;SDS011;55787;52.678;13.314;2023-02-15T17:01:54;24.55;;;9.98;;
68803;SDS011;55787;52.678;13.314;2023-02-15T17:07:03;22.88;;;9.02;;
68803;SDS011;55787;52.678;13.314;2023-02-15T17:09:32;24.10;;;9.07;;
68803;SDS011;55787;52.678;13.314;2023-02-15T17:12:00;21.73;;;8.57;;
68803;SDS011;55787;52.678;13.314;2023-02-15T17:14:29;24.90;;;8.95;;
68803;SDS011;55787;52.678;13.314;2023-02-15T17:17:06;23.15;;;9.25;;
68803;SDS011;55787;52.678;13.314;2023-02-15T17:22:24;25.08;;;9.38;;
68803;SDS011;55787;52.678;13.314;2023-02-15T17:24:58;24.90;;;9.00;;
68803;SDS011;55787;52.678;13.314;2023-02-15T17:27:27;26.92;;;9.80;;
68803;SDS011;55787;52.678;13.314;2023-02-15T17:29:58;23.60;;;10.02;;
68803;SDS011;55787;52.678;13.314;2023-02-15T17:32:42;29.15;;;10.40;;
68803;SDS011;55787;52.678;13.314;2023-02-15T17:35:23;27.65;;;10.63;;
68803;SDS011;55787;52.678;13.314;2023-02-15T17:37:59;21.37;;;9.60;;
68803;SDS011;55787;52.678;13.314;2023-02-15T17:40:30;26.40;;;10.32;;
68803;SDS011;55787;52.678;13.314;2023-02-15T17:42:59;26.40;;;11.32;;
68803;SDS011;55787;52.678;13.314;2023-02-15T17:45:33;31.08;;;12.23;;
68803;SDS011;55787;52.678;13.314;2023-02-15T17:48:04;33.25;;;13.38;;
68803;SDS011;55787;52.678;13.314;2023-02-15T17:50:32;31.73;;;12.83;;
68803;SDS011;55787;52.678;13.314;2023-02-15T17:52:59;33.13;;;12.73;;
68803;SDS011;55787;52.678;13.314;2023-02-15T17:55:29;28.67;;;11.25;;
68803;SDS011;55787;52.678;13.314;2023-02-15T17:58:07;28.33;;;10.52;;
68803;SDS011;55787;52.678;13.314;2023-02-15T18:00:41;31.25;;;11.23;;
68803;SDS011;55787;52.678;13.314;2023-02-15T18:03:29;30.57;;;10.50;;
68803;SDS011;55787;52.678;13.314;2023-02-15T18:06:40;31.58;;;10.98;;
68803;SDS011;55787;52.678;13.314;2023-02-15T18:09:26;29.02;;;11.15;;
68803;SDS011;55787;52.678;13.314;2023-02-15T18:12:19;32.20;;;11.73;;
68803;SDS011;55787;52.678;13.314;2023-02-15T18:14:59;36.83;;;12.18;;
68803;SDS011;55787;52.678;13.314;2023-02-15T18:17:28;38.30;;;13.97;;